Time;durP1;ratioP1;P1;durP2;ratioP2;P2;SDS_P1;SDS_P2;PMS_P1;PMS_P2;Temp;Humidity;BMP_temperature;BMP_pressure;BME280_temperature;BME280_humidity;BME280_pressure;Samples;Min_cycle;Max_cycle;Signal;HPM_P1;HPM_P2
2022/12/03 00:01:40;;;;;;;;;;;2.20;84.00;;;;;;5034518;28;20313;-84
2022/12/03 00:04:06;;;;;;;;;;;2.30;83.40;;;;;;5001148;28;19936;-83
2022/12/03 00:06:31;;;;;;;;;;;2.20;83.80;;;;;;5033039;28;19999;-85
2022/12/03 00:08:57;;;;;;;;;;;2.30;84.10;;;;;;5016707;28;19913;-85
2022/12/03 00:11:22;;;;;;;;;;;2.30;83.30;;;;;;5032222;28;19918;-83
2022/12/03 00:13:48;;;;;;;;;;;2.30;83.70;;;;;;5012797;28;19944;-87
2022/12/03 00:16:13;;;;;;;;;;;2.20;83.50;;;;;;5029928;28;20358;-84
2022/12/03 00:18:39;;;;;;;;;;;2.30;83.60;;;;;;5028448;28;19921;-84
2022/12/03 00:21:04;;;;;;;;;;;2.30;83.80;;;;;;5014430;28;19913;-83
2022/12/03 00:23:30;;;;;;;;;;;2.20;83.30;;;;;;5001408;28;19917;-84
2022/12/03 00:25:55;;;;;;;;;;;2.20;83.60;;;;;;5024053;28;19916;-84
2022/12/03 00:28:21;;;;;;;;;;;2.20;83.80;;;;;;5027787;28;19920;-84
2022/12/03 00:30:46;;;;;;;;;;;2.30;83.10;;;;;;5030587;28;19917;-85
2022/12/03 00:33:12;;;;;;;;;;;2.30;83.30;;;;;;5051871;28;19905;-82
2022/12/03 00:35:37;;;;;;;;;;;2.30;83.20;;;;;;5018941;28;19929;-84
2022/12/03 00:38:03;;;;;;;;;;;2.20;83.10;;;;;;5033949;28;20003;-84
2022/12/03 00:40:28;;;;;;;;;;;2.20;83.50;;;;;;5021875;28;19913;-85
2022/12/03 00:45:21;;;;;;;;;;;2.30;83.20;;;;;;5066340;28;19955;-80
2022/12/03 00:47:47;;;;;;;;;;;2.30;82.80;;;;;;5059136;28;19917;-81
2022/12/03 00:50:12;;;;;;;;;;;2.30;83.00;;;;;;5056743;28;19935;-81
2022/12/03 00:52:38;;;;;;;;;;;2.30;83.20;;;;;;5060449;28;19928;-81
2022/12/03 00:55:03;;;;;;;;;;;2.20;83.50;;;;;;5055692;28;20288;-80
2022/12/03 00:57:29;;;;;;;;;;;2.30;83.10;;;;;;5056107;28;20167;-81
2022/12/03 00:59:54;;;;;;;;;;;2.30;83.30;;;;;;5055014;28;19916;-81
2022/12/03 01:02:20;;;;;;;;;;;2.30;82.80;;;;;;5054947;28;20007;-79
2022/12/03 01:04:45;;;;;;;;;;;2.30;82.80;;;;;;5055984;28;19921;-81
2022/12/03 01:07:11;;;;;;;;;;;2.30;83.10;;;;;;5062672;28;19912;-80
2022/12/03 01:09:36;;;;;;;;;;;2.30;83.10;;;;;;5056833;28;19993;-78
2022/12/03 01:12:02;;;;;;;;;;;2.20;83.10;;;;;;5062362;28;19920;-80
2022/12/03 01:14:27;;;;;;;;;;;2.20;83.30;;;;;;5048799;28;19997;-79
2022/12/03 01:16:53;;;;;;;;;;;2.20;83.50;;;;;;5066584;28;19912;-79
2022/12/03 01:19:18;;;;;;;;;;;2.30;82.70;;;;;;5066946;28;19928;-79
2022/12/03 01:21:45;;;;;;;;;;;2.30;83.00;;;;;;5073575;28;19924;-79
2022/12/03 01:24:11;;;;;;;;;;;2.20;83.50;;;;;;5061039;28;20016;-78
2022/12/03 01:26:36;;;;;;;;;;;2.20;83.70;;;;;;5059624;28;20418;-80
2022/12/03 01:29:02;;;;;;;;;;;2.20;83.50;;;;;;5058272;28;20306;-80
2022/12/03 01:34:11;;;;;;;;;;;2.30;83.40;;;;;;5060292;28;19938;-76
2022/12/03 01:36:37;;;;;;;;;;;2.30;83.40;;;;;;5044941;28;20007;-78
2022/12/03 01:39:03;;;;;;;;;;;2.20;83.40;;;;;;5051839;28;19912;-80
2022/12/03 01:41:29;;;;;;;;;;;2.40;83.00;;;;;;5054113;28;19912;-79
2022/12/03 01:43:55;;;;;;;;;;;2.30;83.00;;;;;;5051098;28;19928;-80
2022/12/03 01:46:22;;;;;;;;;;;2.40;83.30;;;;;;5052384;28;20030;-80
2022/12/03 01:48:49;;;;;;;;;;;2.40;82.70;;;;;;5052699;28;19924;-79
2022/12/03 01:51:14;;;;;;;;;;;2.30;83.10;;;;;;5054179;28;20000;-78
2022/12/03 01:53:40;;;;;;;;;;;2.30;83.00;;;;;;5061829;28;19948;-80
2022/12/03 01:56:07;;;;;;;;;;;2.20;83.40;;;;;;5057497;28;19913;-77
2022/12/03 01:58:33;;;;;;;;;;;2.30;83.40;;;;;;5055391;28;20299;-80
2022/12/03 02:01:01;;;;;;;;;;;2.30;83.10;;;;;;5056949;28;19920;-79
2022/12/03 02:03:26;;;;;;;;;;;2.30;82.80;;;;;;5053249;28;19920;-80
2022/12/03 02:05:52;;;;;;;;;;;2.30;82.70;;;;;;5057170;28;19921;-80
2022/12/03 02:08:28;;;;;;;;;;;2.30;83.10;;;;;;5051286;28;19981;-79
2022/12/03 02:10:53;;;;;;;;;;;2.40;83.20;;;;;;5054184;28;19974;-79
2022/12/03 02:13:19;;;;;;;;;;;2.50;82.70;;;;;;5051685;28;20019;-79
2022/12/03 02:15:44;;;;;;;;;;;2.30;83.00;;;;;;5058024;28;19916;-78
2022/12/03 02:18:10;;;;;;;;;;;2.30;83.30;;;;;;5057406;28;19919;-78
2022/12/03 02:20:39;;;;;;;;;;;2.30;83.00;;;;;;5068941;28;19920;-81
2022/12/03 02:23:10;;;;;;;;;;;2.30;83.20;;;;;;5055485;28;19919;-76
2022/12/03 02:25:36;;;;;;;;;;;2.50;82.40;;;;;;5058330;28;19916;-80
2022/12/03 02:28:02;;;;;;;;;;;2.40;82.50;;;;;;5057974;28;19936;-81
2022/12/03 02:30:28;;;;;;;;;;;2.50;82.50;;;;;;5054444;28;19913;-79
2022/12/03 02:32:54;;;;;;;;;;;2.50;82.00;;;;;;5061250;28;19931;-79
2022/12/03 02:35:21;;;;;;;;;;;2.40;82.70;;;;;;5066553;28;20011;-79
2022/12/03 02:37:49;;;;;;;;;;;2.20;82.90;;;;;;5063130;28;19928;-79
2022/12/03 02:40:18;;;;;;;;;;;2.20;83.40;;;;;;5052815;28;19928;-80
2022/12/03 02:42:44;;;;;;;;;;;2.30;83.30;;;;;;5052716;28;20318;-80
2022/12/03 02:45:13;;;;;;;;;;;2.30;82.90;;;;;;5054002;28;19924;-79
2022/12/03 02:47:46;;;;;;;;;;;2.20;83.00;;;;;;5051566;28;19921;-80
2022/12/03 02:50:14;;;;;;;;;;;2.30;82.80;;;;;;5058750;28;20375;-81
2022/12/03 02:52:40;;;;;;;;;;;2.30;83.00;;;;;;5055453;28;19972;-80
2022/12/03 02:55:06;;;;;;;;;;;2.30;82.70;;;;;;5053005;28;19916;-80
2022/12/03 02:57:33;;;;;;;;;;;2.20;82.80;;;;;;5056609;28;19912;-79
2022/12/03 02:59:58;;;;;;;;;;;2.20;83.00;;;;;;5049933;28;20456;-79
2022/12/03 03:02:27;;;;;;;;;;;2.20;83.20;;;;;;5054261;28;19960;-78
2022/12/03 03:04:53;;;;;;;;;;;2.20;83.50;;;;;;5050126;28;19924;-79
2022/12/03 03:07:18;;;;;;;;;;;2.30;82.70;;;;;;5058503;28;19923;-80
2022/12/03 03:09:44;;;;;;;;;;;2.20;83.10;;;;;;5058970;28;20003;-78
2022/12/03 03:12:10;;;;;;;;;;;2.10;83.30;;;;;;5053858;28;19916;-79
2022/12/03 03:14:35;;;;;;;;;;;2.10;83.20;;;;;;5051592;28;20367;-79
2022/12/03 03:17:02;;;;;;;;;;;2.20;82.90;;;;;;5063220;28;19913;-80
2022/12/03 03:19:27;;;;;;;;;;;2.20;82.80;;;;;;5053879;28;20288;-80
2022/12/03 03:21:53;;;;;;;;;;;2.10;82.90;;;;;;5056010;28;19917;-78
2022/12/03 03:24:19;;;;;;;;;;;2.10;83.20;;;;;;5050220;28;20012;-80
2022/12/03 03:26:45;;;;;;;;;;;2.10;83.10;;;;;;5055041;28;19938;-78
2022/12/03 03:29:10;;;;;;;;;;;2.00;83.20;;;;;;5054290;28;20248;-81
2022/12/03 03:31:36;;;;;;;;;;;2.10;83.40;;;;;;5058772;28;19932;-79
2022/12/03 03:34:02;;;;;;;;;;;2.00;83.30;;;;;;5052340;28;20019;-79
2022/12/03 03:36:27;;;;;;;;;;;2.00;83.40;;;;;;5062649;28;19912;-80
2022/12/03 03:38:53;;;;;;;;;;;2.00;83.60;;;;;;5053876;28;19920;-80
2022/12/03 03:41:19;;;;;;;;;;;2.00;84.00;;;;;;5052634;28;19964;-79
2022/12/03 03:43:46;;;;;;;;;;;2.00;83.50;;;;;;5052314;28;19917;-80
2022/12/03 03:46:13;;;;;;;;;;;2.00;83.90;;;;;;5070364;28;19919;-79
2022/12/03 03:48:39;;;;;;;;;;;2.10;83.80;;;;;;5053332;28;20275;-79
2022/12/03 03:51:08;;;;;;;;;;;2.10;83.20;;;;;;5052577;28;19982;-78
2022/12/03 03:53:35;;;;;;;;;;;2.10;83.40;;;;;;5054593;28;20284;-80
2022/12/03 03:56:00;;;;;;;;;;;2.10;83.40;;;;;;5059786;28;19919;-80
2022/12/03 03:58:26;;;;;;;;;;;2.00;83.50;;;;;;5054662;28;19916;-78
2022/12/03 04:00:51;;;;;;;;;;;2.00;83.40;;;;;;5052772;28;19944;-77
2022/12/03 04:03:17;;;;;;;;;;;2.00;83.40;;;;;;5054638;28;19913;-80
2022/12/03 04:05:42;;;;;;;;;;;2.00;83.40;;;;;;5053497;28;19912;-78
2022/12/03 04:08:07;;;;;;;;;;;2.00;83.30;;;;;;5056137;28;19936;-79
2022/12/03 04:13:17;;;;;;;;;;;2.00;83.50;;;;;;5051276;28;19923;-81
2022/12/03 04:15:43;;;;;;;;;;;2.00;83.30;;;;;;5056102;28;19917;-79
2022/12/03 04:22:38;;;;;;;;;;;1.90;83.20;;;;;;5063507;28;19939;-77
2022/12/03 04:23:37;;;;;;;;;;;1.80;83.50;;;;;;5068415;28;19999;-79
2022/12/03 04:28:50;;;;;;;;;;;1.90;84.00;;;;;;5056283;28;19970;-78
2022/12/03 04:36:45;;;;;;;;;;;1.90;83.20;;;;;;5051488;28;20041;-77
2022/12/03 04:39:10;;;;;;;;;;;1.90;83.30;;;;;;5087467;28;19917;-79
2022/12/03 04:41:36;;;;;;;;;;;1.90;83.60;;;;;;5053098;28;19935;-77
2022/12/03 04:46:45;;;;;;;;;;;1.80;83.50;;;;;;5059298;28;19936;-79
2022/12/03 04:49:10;;;;;;;;;;;1.90;83.80;;;;;;5052000;28;19913;-80
2022/12/03 04:51:36;;;;;;;;;;;1.80;83.70;;;;;;5060528;28;19964;-79
2022/12/03 04:54:01;;;;;;;;;;;1.80;83.90;;;;;;5051504;28;19921;-79
2022/12/03 04:56:27;;;;;;;;;;;1.70;83.90;;;;;;5054517;28;19913;-80
2022/12/03 04:58:52;;;;;;;;;;;1.80;84.00;;;;;;5053674;28;19927;-77
2022/12/03 05:01:18;;;;;;;;;;;1.70;84.10;;;;;;5049132;28;19966;-78
2022/12/03 05:03:43;;;;;;;;;;;1.70;83.60;;;;;;5053373;28;19913;-79
2022/12/03 05:06:09;;;;;;;;;;;1.70;84.00;;;;;;5054961;28;19920;-80
2022/12/03 05:08:34;;;;;;;;;;;1.70;83.80;;;;;;5071565;28;19909;-78
2022/12/03 05:10:59;;;;;;;;;;;1.70;84.00;;;;;;5051724;28;20503;-79
2022/12/03 05:13:25;;;;;;;;;;;1.70;84.00;;;;;;5052504;28;19913;-79
2022/12/03 05:15:50;;;;;;;;;;;1.70;84.20;;;;;;5061896;28;19935;-79
2022/12/03 05:18:16;;;;;;;;;;;1.80;83.90;;;;;;5069150;28;19913;-81
2022/12/03 05:20:41;;;;;;;;;;;1.90;83.80;;;;;;5052154;28;19913;-80
2022/12/03 05:23:07;;;;;;;;;;;1.90;83.20;;;;;;5054295;28;19913;-78
2022/12/03 05:25:33;;;;;;;;;;;1.90;83.10;;;;;;5053108;28;20280;-79
2022/12/03 05:27:58;;;;;;;;;;;1.80;83.30;;;;;;5068380;28;19913;-81
2022/12/03 05:30:24;;;;;;;;;;;1.90;83.20;;;;;;5055259;28;19970;-80
2022/12/03 05:32:49;;;;;;;;;;;1.90;83.30;;;;;;5054108;28;19928;-78
2022/12/03 05:35:14;;;;;;;;;;;1.80;83.30;;;;;;5056447;28;19923;-79
2022/12/03 05:37:40;;;;;;;;;;;1.80;82.90;;;;;;5055037;28;20069;-80
2022/12/03 05:40:06;;;;;;;;;;;1.80;83.20;;;;;;5057134;28;19913;-78
2022/12/03 05:45:16;;;;;;;;;;;1.70;83.60;;;;;;5060538;28;19924;-77
2022/12/03 05:47:41;;;;;;;;;;;1.80;83.80;;;;;;5059998;28;20324;-79
2022/12/03 05:50:07;;;;;;;;;;;1.80;83.10;;;;;;5063683;28;19912;-79
2022/12/03 05:52:32;;;;;;;;;;;1.80;83.10;;;;;;5057221;28;19913;-79
2022/12/03 05:54:58;;;;;;;;;;;1.80;83.20;;;;;;5051872;28;19921;-80
2022/12/03 05:57:23;;;;;;;;;;;1.70;83.20;;;;;;5057413;28;19956;-80
2022/12/03 05:59:48;;;;;;;;;;;1.80;83.70;;;;;;5055572;28;19920;-80
2022/12/03 06:02:14;;;;;;;;;;;1.70;83.60;;;;;;5054283;28;20398;-78
2022/12/03 06:04:39;;;;;;;;;;;1.80;83.80;;;;;;5059513;28;19917;-78
2022/12/03 06:07:05;;;;;;;;;;;1.70;83.30;;;;;;5056702;28;19919;-76
2022/12/03 06:09:30;;;;;;;;;;;1.70;83.60;;;;;;5060865;28;20264;-77
2022/12/03 06:11:56;;;;;;;;;;;1.70;83.60;;;;;;5061826;28;20089;-79
2022/12/03 06:14:21;;;;;;;;;;;1.60;83.80;;;;;;5060510;28;20011;-77
2022/12/03 06:16:46;;;;;;;;;;;1.60;83.80;;;;;;5055576;28;19920;-76
2022/12/03 06:19:12;;;;;;;;;;;1.60;83.80;;;;;;5062709;28;19920;-79
2022/12/03 06:21:37;;;;;;;;;;;1.60;83.90;;;;;;5058562;28;19952;-79
2022/12/03 06:24:03;;;;;;;;;;;1.60;84.10;;;;;;5055904;28;20381;-79
2022/12/03 06:26:31;;;;;;;;;;;1.60;83.70;;;;;;5052971;28;20354;-78
2022/12/03 06:28:57;;;;;;;;;;;1.60;83.90;;;;;;5053150;28;19962;-78
2022/12/03 06:31:22;;;;;;;;;;;1.60;83.50;;;;;;5056081;28;20007;-80
2022/12/03 06:33:48;;;;;;;;;;;1.60;83.70;;;;;;5055216;28;19917;-78
2022/12/03 06:36:13;;;;;;;;;;;1.60;83.70;;;;;;5056673;28;19913;-79
2022/12/03 06:38:39;;;;;;;;;;;1.50;83.90;;;;;;5056046;28;19913;-79
2022/12/03 06:41:04;;;;;;;;;;;1.50;84.00;;;;;;5063251;28;19916;-79
2022/12/03 06:43:30;;;;;;;;;;;1.40;83.90;;;;;;5052230;28;19957;-76
2022/12/03 06:45:55;;;;;;;;;;;1.50;84.20;;;;;;5055017;28;19913;-79
2022/12/03 06:48:21;;;;;;;;;;;1.50;84.00;;;;;;5062785;28;19974;-79
2022/12/03 06:50:46;;;;;;;;;;;1.50;84.40;;;;;;5054964;28;20004;-77
2022/12/03 06:53:12;;;;;;;;;;;1.50;84.10;;;;;;5055056;28;19979;-78
2022/12/03 06:55:37;;;;;;;;;;;1.40;84.40;;;;;;5061465;28;19916;-79
2022/12/03 06:58:03;;;;;;;;;;;1.50;84.60;;;;;;5056668;28;20438;-79
2022/12/03 07:00:28;;;;;;;;;;;1.50;84.20;;;;;;5049461;28;19913;-76
2022/12/03 07:02:54;;;;;;;;;;;1.50;84.20;;;;;;5051367;28;19916;-79
2022/12/03 07:05:19;;;;;;;;;;;1.50;84.10;;;;;;5050792;28;19909;-77
2022/12/03 07:07:50;;;;;;;;;;;1.40;84.50;;;;;;5067863;28;19912;-77
2022/12/03 07:10:19;;;;;;;;;;;1.40;84.60;;;;;;5051165;28;20295;-78
2022/12/03 07:12:44;;;;;;;;;;;1.30;84.70;;;;;;5051732;28;19917;-78
2022/12/03 07:15:10;;;;;;;;;;;1.40;84.70;;;;;;5050447;28;19920;-79
2022/12/03 07:17:35;;;;;;;;;;;1.30;84.40;;;;;;5051536;28;19913;-76
2022/12/03 07:20:03;;;;;;;;;;;1.30;84.40;;;;;;5053617;28;19979;-76
2022/12/03 07:22:28;;;;;;;;;;;1.20;84.50;;;;;;5053136;28;19955;-77
2022/12/03 07:24:54;;;;;;;;;;;1.20;84.70;;;;;;5057177;28;20303;-78
2022/12/03 07:27:19;;;;;;;;;;;1.20;84.50;;;;;;5085283;28;19913;-76
2022/12/03 07:29:44;;;;;;;;;;;1.20;84.40;;;;;;5049503;28;19913;-80
2022/12/03 07:32:10;;;;;;;;;;;1.20;84.50;;;;;;5051667;28;20399;-78
2022/12/03 07:34:35;;;;;;;;;;;1.30;84.80;;;;;;5063266;28;19917;-77
2022/12/03 07:37:01;;;;;;;;;;;1.30;84.60;;;;;;5072436;28;19917;-78
2022/12/03 07:39:26;;;;;;;;;;;1.30;84.60;;;;;;5067554;28;19916;-80
2022/12/03 07:41:52;;;;;;;;;;;1.30;84.30;;;;;;5056131;28;19956;-79
2022/12/03 07:44:17;;;;;;;;;;;1.30;84.00;;;;;;5051281;28;19917;-77
2022/12/03 07:46:43;;;;;;;;;;;1.30;84.20;;;;;;5051268;28;20426;-79
2022/12/03 07:49:08;;;;;;;;;;;1.30;84.40;;;;;;5052434;28;19913;-82
2022/12/03 07:51:34;;;;;;;;;;;1.30;84.00;;;;;;5050787;28;19920;-81
2022/12/03 07:53:59;;;;;;;;;;;1.30;84.40;;;;;;5069083;28;20363;-79
2022/12/03 07:56:25;;;;;;;;;;;1.40;84.30;;;;;;5053631;28;20081;-82
2022/12/03 07:58:50;;;;;;;;;;;1.40;84.20;;;;;;5065066;28;19939;-80
2022/12/03 08:01:16;;;;;;;;;;;1.40;84.30;;;;;;5046014;28;19964;-81
2022/12/03 08:03:41;;;;;;;;;;;1.40;84.20;;;;;;5049565;28;19917;-83
2022/12/03 08:06:07;;;;;;;;;;;1.40;84.20;;;;;;5039753;28;19936;-82
2022/12/03 08:08:33;;;;;;;;;;;1.50;84.10;;;;;;5049443;28;20406;-80
2022/12/03 08:10:59;;;;;;;;;;;1.50;83.70;;;;;;5050511;28;19963;-80
2022/12/03 08:13:26;;;;;;;;;;;1.40;83.50;;;;;;5050750;28;19920;-78
2022/12/03 08:15:51;;;;;;;;;;;1.50;84.00;;;;;;5058210;28;19916;-81
2022/12/03 08:18:18;;;;;;;;;;;1.40;84.20;;;;;;5082890;28;19925;-77
2022/12/03 08:20:44;;;;;;;;;;;1.40;83.70;;;;;;5069440;28;19912;-78
2022/12/03 08:23:20;;;;;;;;;;;1.40;83.90;;;;;;5067523;28;20031;-81
2022/12/03 08:25:46;;;;;;;;;;;1.40;84.00;;;;;;5055642;28;19935;-82
2022/12/03 08:28:13;;;;;;;;;;;1.30;84.10;;;;;;5053789;28;19920;-82
2022/12/03 08:30:39;;;;;;;;;;;1.30;84.50;;;;;;5052452;28;19978;-82
2022/12/03 08:33:12;;;;;;;;;;;1.30;84.50;;;;;;5052528;28;19912;-78
2022/12/03 08:35:39;;;;;;;;;;;1.40;84.50;;;;;;5057088;28;20299;-79
2022/12/03 08:38:11;;;;;;;;;;;1.40;84.50;;;;;;5049853;28;19948;-79
2022/12/03 08:40:41;;;;;;;;;;;1.50;84.30;;;;;;5048439;28;20368;-80
2022/12/03 08:43:15;;;;;;;;;;;1.40;84.00;;;;;;5052908;28;19998;-78
2022/12/03 08:45:41;;;;;;;;;;;1.30;84.10;;;;;;5049805;28;19923;-79
2022/12/03 08:48:20;;;;;;;;;;;1.40;84.30;;;;;;5052006;28;19976;-82
2022/12/03 08:50:45;;;;;;;;;;;1.40;83.70;;;;;;5044050;28;19920;-80
2022/12/03 08:53:14;;;;;;;;;;;1.30;83.80;;;;;;5047334;28;20016;-78
2022/12/03 08:55:46;;;;;;;;;;;1.40;84.20;;;;;;5050899;28;19932;-81
2022/12/03 08:58:18;;;;;;;;;;;1.40;84.10;;;;;;5060193;28;19912;-81
2022/12/03 09:00:43;;;;;;;;;;;1.40;84.20;;;;;;5050502;28;19912;-79
2022/12/03 09:03:11;;;;;;;;;;;1.40;83.90;;;;;;5051421;28;20368;-81
2022/12/03 09:05:37;;;;;;;;;;;1.50;84.30;;;;;;5056889;28;19985;-78
2022/12/03 09:08:02;;;;;;;;;;;1.50;83.60;;;;;;5059802;28;19909;-78
2022/12/03 09:10:28;;;;;;;;;;;1.40;83.50;;;;;;5067021;28;19913;-83
2022/12/03 09:12:53;;;;;;;;;;;1.40;83.60;;;;;;5065119;28;19917;-81
2022/12/03 09:15:19;;;;;;;;;;;1.50;83.70;;;;;;5061074;28;19932;-79
2022/12/03 09:17:44;;;;;;;;;;;1.50;83.40;;;;;;5052307;28;20483;-84
2022/12/03 09:20:10;;;;;;;;;;;1.60;83.70;;;;;;5051033;28;19980;-81
2022/12/03 09:22:35;;;;;;;;;;;1.60;83.50;;;;;;5049150;28;19913;-83
2022/12/03 09:25:01;;;;;;;;;;;1.60;83.40;;;;;;5051542;28;20365;-81
2022/12/03 09:27:26;;;;;;;;;;;1.60;83.40;;;;;;5043096;28;19916;-82
2022/12/03 09:29:52;;;;;;;;;;;1.60;83.00;;;;;;5075560;28;19927;-81
2022/12/03 09:32:17;;;;;;;;;;;1.60;82.70;;;;;;5046324;28;20525;-83
2022/12/03 09:34:43;;;;;;;;;;;1.60;83.00;;;;;;5049375;28;20016;-80
2022/12/03 09:37:08;;;;;;;;;;;1.60;83.00;;;;;;5057413;28;19921;-80
2022/12/03 09:39:34;;;;;;;;;;;1.60;82.40;;;;;;5050915;28;19912;-82
2022/12/03 09:41:59;;;;;;;;;;;1.70;82.90;;;;;;5051330;28;19912;-80
2022/12/03 09:44:27;;;;;;;;;;;1.70;82.30;;;;;;5043189;28;19932;-83
2022/12/03 09:46:53;;;;;;;;;;;1.90;82.20;;;;;;5045684;28;20351;-83
2022/12/03 09:49:19;;;;;;;;;;;1.90;82.00;;;;;;5045452;28;19917;-81
2022/12/03 09:51:44;;;;;;;;;;;1.90;81.60;;;;;;5044092;28;19985;-82
2022/12/03 09:54:15;;;;;;;;;;;2.00;81.20;;;;;;5044452;28;20007;-80
2022/12/03 09:56:40;;;;;;;;;;;2.10;81.00;;;;;;5050861;28;19916;-80
2022/12/03 09:59:12;;;;;;;;;;;1.90;81.30;;;;;;5048594;28;19924;-79
2022/12/03 10:01:38;;;;;;;;;;;1.80;81.70;;;;;;5037728;28;20380;-80
2022/12/03 10:04:03;;;;;;;;;;;1.80;81.90;;;;;;5050453;28;19913;-79
2022/12/03 10:06:29;;;;;;;;;;;1.80;82.00;;;;;;5056240;28;19913;-81
2022/12/03 10:08:54;;;;;;;;;;;1.80;82.10;;;;;;5051792;28;20011;-81
2022/12/03 10:11:21;;;;;;;;;;;1.80;81.80;;;;;;5047393;28;19913;-79
2022/12/03 10:13:47;;;;;;;;;;;1.80;82.10;;;;;;5049538;28;19921;-82
2022/12/03 10:16:14;;;;;;;;;;;1.80;82.00;;;;;;5045531;28;19914;-82
2022/12/03 10:18:41;;;;;;;;;;;1.90;81.50;;;;;;5057126;28;19967;-83
2022/12/03 10:21:14;;;;;;;;;;;1.90;81.50;;;;;;5057478;28;19917;-79
2022/12/03 10:23:39;;;;;;;;;;;2.00;81.60;;;;;;5061532;28;19955;-81
2022/12/03 10:26:05;;;;;;;;;;;2.10;81.30;;;;;;5052427;28;19913;-80
2022/12/03 10:28:37;;;;;;;;;;;2.10;81.30;;;;;;5059017;28;19913;-82
2022/12/03 10:31:04;;;;;;;;;;;2.30;80.90;;;;;;5056927;28;19916;-80
2022/12/03 10:33:41;;;;;;;;;;;2.20;80.70;;;;;;5057318;28;19913;-81
2022/12/03 10:36:18;;;;;;;;;;;2.10;81.10;;;;;;5058786;28;19927;-81
2022/12/03 10:38:44;;;;;;;;;;;2.00;81.40;;;;;;5053928;28;19913;-82
2022/12/03 10:41:26;;;;;;;;;;;2.10;81.70;;;;;;5054317;28;19921;-82
2022/12/03 10:43:52;;;;;;;;;;;2.00;81.50;;;;;;5051769;28;19924;-82
2022/12/03 10:46:18;;;;;;;;;;;2.10;81.10;;;;;;5054585;28;19935;-80
2022/12/03 10:48:44;;;;;;;;;;;2.00;81.30;;;;;;5052347;28;19955;-82
2022/12/03 10:51:20;;;;;;;;;;;2.10;81.20;;;;;;5053347;28;19912;-80
2022/12/03 10:53:45;;;;;;;;;;;2.20;80.80;;;;;;5053057;28;19912;-82
2022/12/03 10:56:14;;;;;;;;;;;2.10;80.90;;;;;;5072302;28;20062;-82
2022/12/03 10:58:40;;;;;;;;;;;2.00;81.50;;;;;;5049076;28;19913;-82
2022/12/03 11:01:13;;;;;;;;;;;2.10;81.80;;;;;;5052901;28;19983;-80
2022/12/03 11:03:39;;;;;;;;;;;2.20;81.30;;;;;;5057821;28;20016;-83
2022/12/03 11:06:04;;;;;;;;;;;2.30;81.90;;;;;;5066940;28;19908;-83
2022/12/03 11:08:33;;;;;;;;;;;2.30;81.10;;;;;;5056240;28;19916;-82
2022/12/03 11:11:07;;;;;;;;;;;2.20;80.80;;;;;;5062161;28;19912;-83
2022/12/03 11:13:32;;;;;;;;;;;2.20;80.60;;;;;;5051837;28;19913;-83
2022/12/03 11:15:58;;;;;;;;;;;2.10;80.90;;;;;;5048599;28;19925;-85
2022/12/03 11:18:36;;;;;;;;;;;2.20;81.10;;;;;;5053750;28;19913;-85
2022/12/03 11:21:12;;;;;;;;;;;2.20;81.00;;;;;;5060433;28;20392;-84
2022/12/03 11:23:43;;;;;;;;;;;2.10;80.90;;;;;;5058251;28;19917;-83
2022/12/03 11:26:29;;;;;;;;;;;2.10;81.20;;;;;;5040911;28;19913;-82
2022/12/03 11:28:56;;;;;;;;;;;2.10;81.10;;;;;;5055914;28;20239;-82
2022/12/03 11:31:40;;;;;;;;;;;2.30;80.90;;;;;;5060633;28;19917;-83
2022/12/03 11:34:18;;;;;;;;;;;2.40;80.20;;;;;;5057791;28;19919;-79
2022/12/03 11:37:02;;;;;;;;;;;2.30;80.00;;;;;;5055770;28;19920;-81
2022/12/03 11:39:43;;;;;;;;;;;2.20;80.90;;;;;;5053970;28;20003;-81
2022/12/03 11:42:24;;;;;;;;;;;2.10;81.00;;;;;;5054157;28;19955;-81
2022/12/03 11:45:04;;;;;;;;;;;2.30;81.40;;;;;;5055291;28;19936;-80
2022/12/03 11:47:30;;;;;;;;;;;2.20;80.50;;;;;;5055404;28;19959;-81
2022/12/03 11:49:56;;;;;;;;;;;2.10;80.90;;;;;;5054660;28;19931;-81
2022/12/03 11:52:23;;;;;;;;;;;2.10;81.00;;;;;;5051666;28;19912;-80
2022/12/03 11:54:51;;;;;;;;;;;2.10;80.90;;;;;;5053524;28;20371;-79
2022/12/03 11:57:25;;;;;;;;;;;2.10;81.00;;;;;;5050306;28;19909;-81
2022/12/03 11:59:57;;;;;;;;;;;2.10;81.20;;;;;;5053331;28;19912;-80
2022/12/03 12:02:23;;;;;;;;;;;2.10;81.20;;;;;;5054823;28;20008;-81
2022/12/03 12:04:49;;;;;;;;;;;2.10;81.40;;;;;;5053940;28;19968;-82
2022/12/03 12:07:32;;;;;;;;;;;2.30;81.10;;;;;;5053667;28;19920;-82
2022/12/03 12:09:57;;;;;;;;;;;2.30;81.10;;;;;;5048499;28;19979;-81
2022/12/03 12:12:30;;;;;;;;;;;2.20;80.40;;;;;;5049903;28;19912;-82
2022/12/03 12:14:56;;;;;;;;;;;2.20;80.50;;;;;;5054036;28;19974;-82
2022/12/03 12:17:29;;;;;;;;;;;2.20;80.20;;;;;;5049066;28;19913;-82
2022/12/03 12:20:30;;;;;;;;;;;2.30;80.20;;;;;;5075124;28;19917;-81
2022/12/03 12:23:15;;;;;;;;;;;2.40;80.10;;;;;;5010125;28;19968;-81
2022/12/03 12:25:41;;;;;;;;;;;2.30;80.10;;;;;;5053972;28;19909;-81
2022/12/03 12:28:06;;;;;;;;;;;2.20;80.40;;;;;;5066989;28;20039;-80
2022/12/03 12:30:32;;;;;;;;;;;2.20;80.20;;;;;;5052670;28;19952;-80
2022/12/03 12:33:06;;;;;;;;;;;2.10;80.70;;;;;;5052245;28;19909;-80
2022/12/03 12:35:32;;;;;;;;;;;2.10;81.40;;;;;;5061816;28;19917;-81
2022/12/03 12:38:00;;;;;;;;;;;2.10;81.20;;;;;;5061936;28;19916;-82
2022/12/03 12:40:27;;;;;;;;;;;2.30;80.90;;;;;;5053252;28;19921;-81
2022/12/03 12:42:54;;;;;;;;;;;2.30;80.80;;;;;;5091263;22;20028;-80
2022/12/03 12:45:24;;;;;;;;;;;2.20;80.60;;;;;;5069583;28;19920;-86
2022/12/03 12:47:59;;;;;;;;;;;2.30;80.60;;;;;;5074083;28;19920;-84
2022/12/03 12:50:25;;;;;;;;;;;2.10;80.50;;;;;;5076563;28;19923;-82
2022/12/03 12:52:52;;;;;;;;;;;2.10;81.30;;;;;;5070456;28;19995;-83
2022/12/03 12:55:18;;;;;;;;;;;2.10;80.90;;;;;;5084205;28;19916;-83
2022/12/03 12:58:06;;;;;;;;;;;2.10;80.20;;;;;;5033283;28;20101;-82
2022/12/03 13:00:31;;;;;;;;;;;2.10;81.00;;;;;;5074391;28;19935;-84
2022/12/03 13:02:58;;;;;;;;;;;2.10;81.20;;;;;;5072950;28;19913;-83
2022/12/03 13:05:26;;;;;;;;;;;2.10;81.20;;;;;;5077118;28;20320;-83
2022/12/03 13:07:52;;;;;;;;;;;2.10;81.20;;;;;;5081298;28;19909;-82
2022/12/03 13:10:25;;;;;;;;;;;2.10;81.00;;;;;;5083910;28;19912;-83
2022/12/03 13:12:51;;;;;;;;;;;2.10;81.00;;;;;;5067519;28;19937;-82
2022/12/03 13:15:35;;;;;;;;;;;2.10;80.80;;;;;;5072558;28;20391;-83
2022/12/03 13:18:09;;;;;;;;;;;2.00;80.40;;;;;;5080575;28;19916;-82
2022/12/03 13:20:35;;;;;;;;;;;2.10;81.10;;;;;;5051421;28;19979;-82
2022/12/03 13:23:01;;;;;;;;;;;2.10;81.20;;;;;;5070820;28;19915;-82
2022/12/03 13:25:30;;;;;;;;;;;2.10;80.70;;;;;;5071613;28;19913;-83
2022/12/03 13:27:55;;;;;;;;;;;2.10;81.00;;;;;;5070295;28;19920;-83
2022/12/03 13:30:21;;;;;;;;;;;2.10;80.80;;;;;;5079877;28;20378;-82
2022/12/03 13:32:46;;;;;;;;;;;2.10;81.00;;;;;;5081376;28;20362;-82
2022/12/03 13:35:16;;;;;;;;;;;2.10;80.90;;;;;;5094078;28;20011;-83
2022/12/03 13:37:42;;;;;;;;;;;2.10;80.60;;;;;;5076562;28;19962;-83
2022/12/03 13:40:22;;;;;;;;;;;2.10;80.20;;;;;;5073560;28;19917;-83
2022/12/03 13:42:48;;;;;;;;;;;2.00;79.90;;;;;;5070478;28;20408;-82
2022/12/03 13:45:13;;;;;;;;;;;1.90;80.30;;;;;;5071747;28;19999;-83
2022/12/03 13:47:40;;;;;;;;;;;1.90;80.50;;;;;;5079002;28;19917;-83
2022/12/03 13:50:18;;;;;;;;;;;1.90;81.00;;;;;;5088807;28;19962;-83
2022/12/03 13:52:43;;;;;;;;;;;2.00;81.30;;;;;;5091297;28;19917;-84
2022/12/03 13:55:10;;;;;;;;;;;2.10;81.00;;;;;;5075516;28;20000;-82
2022/12/03 13:57:35;;;;;;;;;;;2.00;81.00;;;;;;5077258;28;20538;-82
2022/12/03 14:00:01;;;;;;;;;;;2.00;81.20;;;;;;5076304;28;19908;-84
2022/12/03 14:02:27;;;;;;;;;;;2.10;81.20;;;;;;5075371;28;19939;-84
2022/12/03 14:04:52;;;;;;;;;;;2.00;80.80;;;;;;5091761;28;20541;-85
2022/12/03 14:07:18;;;;;;;;;;;2.00;81.10;;;;;;5079037;28;20373;-83
2022/12/03 14:09:43;;;;;;;;;;;2.00;81.10;;;;;;5077601;28;20424;-82
2022/12/03 14:12:32;;;;;;;;;;;2.00;80.90;;;;;;5089210;28;20552;-83
2022/12/03 14:14:58;;;;;;;;;;;2.00;81.10;;;;;;5095562;28;19912;-83
2022/12/03 14:17:23;;;;;;;;;;;1.90;80.70;;;;;;5087015;28;20109;-83
2022/12/03 14:19:48;;;;;;;;;;;1.90;81.00;;;;;;5089149;28;19909;-83
2022/12/03 14:22:14;;;;;;;;;;;2.00;80.70;;;;;;5075319;28;19920;-83
2022/12/03 14:24:39;;;;;;;;;;;1.90;81.30;;;;;;5074629;28;19965;-83
2022/12/03 14:27:05;;;;;;;;;;;2.00;81.40;;;;;;5080663;28;20058;-83
2022/12/03 14:29:30;;;;;;;;;;;2.00;81.20;;;;;;5087236;28;20327;-83
2022/12/03 14:31:56;;;;;;;;;;;1.90;80.50;;;;;;5088488;28;20384;-82
2022/12/03 14:34:21;;;;;;;;;;;1.90;80.60;;;;;;5075041;28;19946;-83
2022/12/03 14:36:46;;;;;;;;;;;1.90;80.90;;;;;;5073468;28;19913;-83
2022/12/03 14:39:12;;;;;;;;;;;2.00;81.10;;;;;;5074300;28;20011;-84
2022/12/03 14:44:22;;;;;;;;;;;2.00;80.90;;;;;;5084675;28;20457;-83
2022/12/03 14:46:48;;;;;;;;;;;1.90;80.70;;;;;;5074627;28;19923;-83
2022/12/03 14:49:13;;;;;;;;;;;1.90;81.20;;;;;;5076531;28;19909;-82
2022/12/03 14:51:39;;;;;;;;;;;1.90;80.90;;;;;;5078189;28;19923;-83
2022/12/03 14:54:04;;;;;;;;;;;1.90;80.70;;;;;;5096402;28;20003;-83
2022/12/03 14:56:30;;;;;;;;;;;1.90;81.00;;;;;;5089393;28;19912;-84
2022/12/03 14:58:55;;;;;;;;;;;1.80;80.90;;;;;;5095681;28;19908;-82